createdAt,value
2022-11-04T00:01:39.587Z,5.43
2022-11-04T00:04:07.360Z,4.70
2022-11-04T00:06:35.177Z,4.00
2022-11-04T00:09:05.938Z,4.40
2022-11-04T00:11:51.655Z,4.53
2022-11-04T00:14:19.943Z,4.20
2022-11-04T00:17:05.355Z,4.60
2022-11-04T00:19:53.986Z,4.23
2022-11-04T00:22:39.424Z,4.80
2022-11-04T00:25:27.575Z,4.43
2022-11-04T00:28:20.461Z,4.20
2022-11-04T00:30:48.094Z,4.80
2022-11-04T00:33:26.915Z,4.87
2022-11-04T00:35:57.335Z,4.87
2022-11-04T00:38:25.651Z,4.40
2022-11-04T00:40:54.597Z,4.27
2022-11-04T00:43:22.168Z,4.17
2022-11-04T00:45:49.778Z,4.43
2022-11-04T00:48:17.336Z,4.67
2022-11-04T00:50:44.917Z,3.83
2022-11-04T00:53:12.567Z,5.07
2022-11-04T00:55:40.155Z,4.77
2022-11-04T00:58:09.121Z,4.83
2022-11-04T01:00:36.675Z,4.67
2022-11-04T01:03:04.313Z,4.10
2022-11-04T01:05:32.044Z,6.70
2022-11-04T01:07:59.616Z,5.10
2022-11-04T01:10:27.235Z,4.90
2022-11-04T01:12:54.838Z,4.53
2022-11-04T01:15:23.765Z,4.40
2022-11-04T01:17:51.352Z,4.63
2022-11-04T01:20:19.143Z,4.90
2022-11-04T01:22:46.803Z,4.97
2022-11-04T01:25:14.482Z,4.77
2022-11-04T01:27:42.353Z,4.33
2022-11-04T01:30:11.553Z,5.03
2022-11-04T01:32:40.625Z,5.23
2022-11-04T01:35:08.998Z,5.27
2022-11-04T01:37:36.815Z,4.70
2022-11-04T01:40:16.594Z,4.70
2022-11-04T01:42:44.458Z,4.90
2022-11-04T01:45:16.653Z,5.03
2022-11-04T01:47:48.409Z,5.43
2022-11-04T01:50:18.774Z,5.20
2022-11-04T01:52:51.613Z,4.80
2022-11-04T01:55:21.688Z,5.90
2022-11-04T01:57:51.858Z,4.73
2022-11-04T02:00:20.076Z,4.70
2022-11-04T02:02:55.454Z,5.83
2022-11-04T02:05:23.604Z,5.43
2022-11-04T02:07:54.284Z,6.20
2022-11-04T02:10:24.557Z,5.73
2022-11-04T02:12:51.505Z,5.83
2022-11-04T02:15:22.250Z,6.40
2022-11-04T02:18:15.156Z,5.80
2022-11-04T02:21:01.354Z,6.10
2022-11-04T02:23:48.976Z,5.17
2022-11-04T02:26:49.465Z,6.37
2022-11-04T02:29:27.206Z,6.57
2022-11-04T02:31:59.640Z,5.43
2022-11-04T02:34:35.684Z,5.80
2022-11-04T02:37:09.664Z,6.30
2022-11-04T02:39:41.898Z,9.07
2022-11-04T02:42:13.754Z,6.80
2022-11-04T02:44:46.862Z,6.50
2022-11-04T02:47:15.997Z,5.90
2022-11-04T02:49:48.990Z,6.40
2022-11-04T02:52:19.752Z,6.97
2022-11-04T02:54:51.824Z,6.30
2022-11-04T02:57:23.029Z,6.00
2022-11-04T02:59:54.721Z,6.10
2022-11-04T03:02:28.507Z,5.50
2022-11-04T03:04:56.722Z,5.73
2022-11-04T03:07:28.540Z,7.00
2022-11-04T03:09:59.729Z,6.20
2022-11-04T03:12:31.023Z,6.13
2022-11-04T03:15:04.462Z,6.57
2022-11-04T03:17:34.988Z,6.63
2022-11-04T03:20:05.848Z,6.70
2022-11-04T03:22:36.658Z,5.80
2022-11-04T03:25:05.307Z,7.33
2022-11-04T03:27:36.576Z,6.27
2022-11-04T03:30:08.728Z,6.60
2022-11-04T03:32:42.514Z,7.10
2022-11-04T03:35:10.368Z,7.57
2022-11-04T03:37:38.092Z,6.93
2022-11-04T03:40:06.811Z,7.37
2022-11-04T03:42:38.106Z,7.37
2022-11-04T03:45:08.268Z,6.53
2022-11-04T03:47:36.068Z,7.20
2022-11-04T03:50:07.830Z,7.17
2022-11-04T03:52:35.846Z,7.10
2022-11-04T03:55:03.794Z,7.37
2022-11-04T03:57:37.492Z,7.17
2022-11-04T04:00:12.299Z,7.10
2022-11-04T04:02:50.909Z,7.77
2022-11-04T04:05:22.148Z,7.40
2022-11-04T04:07:53.153Z,7.43
2022-11-04T04:10:42.714Z,7.37
2022-11-04T04:13:18.819Z,7.07
2022-11-04T04:15:51.947Z,21.90
2022-11-04T04:18:24.764Z,8.90
2022-11-04T04:20:54.774Z,8.43
2022-11-04T04:23:43.617Z,8.80
2022-11-04T04:26:29.693Z,8.60
2022-11-04T04:28:57.952Z,8.27
2022-11-04T04:31:51.500Z,8.17
2022-11-04T04:34:21.627Z,8.13
2022-11-04T04:36:53.690Z,8.17
2022-11-04T04:39:41.499Z,7.90
2022-11-04T04:42:27.035Z,8.33
2022-11-04T04:45:06.514Z,8.17
2022-11-04T04:47:42.986Z,7.10
2022-11-04T04:50:11.704Z,6.70
2022-11-04T04:52:42.368Z,5.60
2022-11-04T04:55:11.085Z,5.47
2022-11-04T04:57:38.718Z,4.70
2022-11-04T05:00:08.630Z,4.63
2022-11-04T05:02:36.340Z,4.00
2022-11-04T05:05:06.261Z,3.77
2022-11-04T05:07:34.125Z,4.00
2022-11-04T05:10:01.779Z,2.73
2022-11-04T05:12:50.014Z,3.27
2022-11-04T05:15:17.882Z,2.70
2022-11-04T05:17:45.537Z,2.90
2022-11-04T05:20:14.758Z,3.00
2022-11-04T05:22:42.400Z,2.43
2022-11-04T05:25:10.327Z,2.33
2022-11-04T05:27:38.206Z,2.40
2022-11-04T05:30:07.336Z,2.67
2022-11-04T05:32:37.037Z,2.37
2022-11-04T05:35:06.083Z,2.37
2022-11-04T05:37:36.301Z,2.10
2022-11-04T05:40:05.093Z,2.10
2022-11-04T05:42:35.663Z,2.00
2022-11-04T05:45:03.664Z,2.53
2022-11-04T05:47:32.265Z,1.93
2022-11-04T05:50:00.852Z,2.60
2022-11-04T05:52:29.166Z,2.17
2022-11-04T05:54:58.896Z,2.10
2022-11-04T05:57:26.889Z,2.43
2022-11-04T05:59:55.065Z,2.50
2022-11-04T06:02:23.456Z,2.90
2022-11-04T06:04:51.440Z,3.10
2022-11-04T06:07:19.413Z,2.70
2022-11-04T06:09:47.464Z,3.10
2022-11-04T06:12:17.585Z,3.17
2022-11-04T06:14:46.121Z,2.97
2022-11-04T06:17:16.311Z,3.20
2022-11-04T06:19:44.527Z,3.10
2022-11-04T06:22:13.113Z,3.10
2022-11-04T06:24:41.156Z,3.57
2022-11-04T06:27:09.127Z,3.10
2022-11-04T06:29:40.266Z,3.33
2022-11-04T06:32:07.986Z,3.60
2022-11-04T06:34:36.033Z,3.40
2022-11-04T06:37:04.180Z,3.53
2022-11-04T06:39:32.062Z,4.10
2022-11-04T06:42:02.428Z,3.67
2022-11-04T06:44:30.751Z,4.47
2022-11-04T06:46:59.754Z,4.90
2022-11-04T06:49:27.545Z,3.70
2022-11-04T06:51:55.426Z,4.00
2022-11-04T06:54:23.313Z,4.03
2022-11-04T06:56:51.110Z,6.03
2022-11-04T06:59:20.540Z,4.50
2022-11-04T07:01:48.631Z,4.73
2022-11-04T07:04:17.752Z,4.63
2022-11-04T07:06:45.843Z,4.93
2022-11-04T07:09:14.965Z,5.63
2022-11-04T07:11:43.610Z,5.40
2022-11-04T07:14:11.472Z,4.97
2022-11-04T07:16:39.081Z,5.10
2022-11-04T07:19:07.887Z,4.73
2022-11-04T07:21:37.191Z,5.20
2022-11-04T07:24:05.224Z,5.23
2022-11-04T07:26:33.063Z,6.17
2022-11-04T07:29:01.146Z,5.90
2022-11-04T07:31:29.443Z,5.57
2022-11-04T07:33:57.218Z,4.93
2022-11-04T07:36:25.107Z,5.37
2022-11-04T07:38:54.271Z,5.03
2022-11-04T07:41:22.000Z,5.70
2022-11-04T07:43:51.114Z,5.80
2022-11-04T07:46:19.916Z,5.80
2022-11-04T07:48:47.901Z,5.40
2022-11-04T07:51:17.778Z,6.60
2022-11-04T07:53:45.497Z,6.40
2022-11-04T07:56:14.807Z,6.10
2022-11-04T07:58:43.004Z,5.97
2022-11-04T08:01:13.161Z,6.03
2022-11-04T08:03:41.335Z,6.07
2022-11-04T08:06:10.654Z,6.50
2022-11-04T08:08:38.770Z,5.90
2022-11-04T08:11:14.228Z,5.73
2022-11-04T08:13:46.948Z,5.77
2022-11-04T08:16:16.468Z,5.50
2022-11-04T08:18:45.024Z,6.50
2022-11-04T08:21:13.463Z,6.50
2022-11-04T08:23:41.372Z,5.40
2022-11-04T08:26:09.909Z,5.73
2022-11-04T08:28:38.680Z,5.70
2022-11-04T08:31:10.399Z,5.47
2022-11-04T08:33:38.781Z,5.17
2022-11-04T08:36:09.191Z,10.17
2022-11-04T08:38:49.584Z,5.90
2022-11-04T08:41:21.719Z,5.70
2022-11-04T08:43:49.418Z,8.80
2022-11-04T08:46:18.537Z,5.90
2022-11-04T08:48:47.260Z,6.57
2022-11-04T08:51:17.098Z,5.77
2022-11-04T08:53:45.109Z,5.97
2022-11-04T08:56:14.507Z,5.57
2022-11-04T08:58:42.484Z,6.00
2022-11-04T09:01:11.119Z,5.83
2022-11-04T09:03:43.204Z,6.37
2022-11-04T09:06:14.748Z,5.93
2022-11-04T09:08:43.519Z,5.67
2022-11-04T09:11:15.773Z,4.63
2022-11-04T09:13:50.640Z,4.90
2022-11-04T09:16:19.377Z,5.90
2022-11-04T09:19:02.968Z,4.73
2022-11-04T09:21:31.239Z,5.73
2022-11-04T09:23:59.875Z,5.60
2022-11-04T09:26:33.189Z,6.30
2022-11-04T09:29:01.824Z,5.23
2022-11-04T09:31:31.256Z,5.37
2022-11-04T09:34:06.542Z,4.80
2022-11-04T09:36:37.071Z,4.70
2022-11-04T09:39:05.415Z,4.40
2022-11-04T09:42:00.973Z,4.50
2022-11-04T09:44:30.805Z,4.07
2022-11-04T09:47:01.606Z,3.90
2022-11-04T09:49:34.396Z,4.20
2022-11-04T09:52:04.399Z,4.00
2022-11-04T09:54:46.808Z,3.90
2022-11-04T09:57:18.965Z,3.73
2022-11-04T09:59:47.378Z,14.17
2022-11-04T10:02:34.206Z,3.10
2022-11-04T10:05:15.183Z,3.20
2022-11-04T10:07:56.434Z,3.53
2022-11-04T10:10:28.142Z,24.87
2022-11-04T10:13:04.212Z,5.80
2022-11-04T10:15:42.261Z,4.37
2022-11-04T10:18:33.584Z,3.20
2022-11-04T10:21:14.579Z,3.60
2022-11-04T10:23:46.059Z,4.00
2022-11-04T10:26:27.953Z,4.30
2022-11-04T10:28:59.750Z,4.27
2022-11-04T10:31:33.376Z,4.00
2022-11-04T10:34:14.426Z,3.60
2022-11-04T10:36:44.041Z,3.20
2022-11-04T10:39:35.038Z,4.03
2022-11-04T10:42:03.946Z,3.30
2022-11-04T10:44:35.194Z,3.97
2022-11-04T10:47:14.441Z,4.00
2022-11-04T10:50:26.445Z,4.30
2022-11-04T10:53:09.446Z,2.90
2022-11-04T10:55:47.620Z,3.50
2022-11-04T10:58:25.937Z,3.50
2022-11-04T11:00:54.787Z,3.03
2022-11-04T11:03:32.300Z,4.27
2022-11-04T11:06:22.622Z,3.07
2022-11-04T11:08:52.421Z,2.60
2022-11-04T11:11:40.422Z,2.20
2022-11-04T11:14:42.659Z,2.67
2022-11-04T11:17:37.303Z,2.20
2022-11-04T11:20:21.983Z,1.90
2022-11-04T11:23:01.906Z,2.27
2022-11-04T11:25:34.508Z,2.13
2022-11-04T11:28:04.054Z,1.70
2022-11-04T11:30:33.919Z,1.63
2022-11-04T11:33:03.739Z,1.50
2022-11-04T11:35:34.591Z,1.83
2022-11-04T11:38:06.136Z,1.70
2022-11-04T11:40:51.917Z,1.80
2022-11-04T11:43:27.344Z,1.83
2022-11-04T11:45:57.473Z,1.30
2022-11-04T11:48:29.317Z,1.40
2022-11-04T11:50:58.722Z,1.20
2022-11-04T11:53:29.366Z,1.93
2022-11-04T11:56:09.548Z,1.63
2022-11-04T12:01:31.425Z,1.50
2022-11-04T12:09:50.336Z,1.27
2022-11-04T12:12:39.880Z,0.90
2022-11-04T12:15:25.614Z,0.90
2022-11-04T12:18:04.347Z,1.03
2022-11-04T12:20:42.323Z,1.40
2022-11-04T12:23:17.655Z,1.20
2022-11-04T12:25:49.782Z,0.93
2022-11-04T12:28:25.611Z,0.87
2022-11-04T12:31:03.332Z,1.17
2022-11-04T12:33:36.424Z,0.90
2022-11-04T12:36:21.768Z,1.63
2022-11-04T12:39:13.881Z,1.30
2022-11-04T12:42:14.719Z,1.07
2022-11-04T12:44:43.288Z,0.93
2022-11-04T12:47:20.505Z,1.23
2022-11-04T12:49:57.360Z,0.93
2022-11-04T12:52:35.461Z,1.33
2022-11-04T12:55:10.308Z,1.40
2022-11-04T12:57:44.423Z,1.10
2022-11-04T13:00:15.362Z,1.40
2022-11-04T13:02:48.957Z,1.10
2022-11-04T13:05:29.476Z,1.63
2022-11-04T13:07:59.500Z,1.10
2022-11-04T13:10:39.167Z,1.70
2022-11-04T13:13:08.251Z,1.40
2022-11-04T13:15:46.754Z,1.73
2022-11-04T13:18:19.035Z,1.57
2022-11-04T13:20:51.224Z,1.23
2022-11-04T13:23:22.231Z,1.37
2022-11-04T13:25:50.600Z,1.80
2022-11-04T13:28:20.795Z,1.33
2022-11-04T13:30:56.043Z,1.40
2022-11-04T13:33:31.349Z,1.30
2022-11-04T13:36:02.563Z,1.70
2022-11-04T13:38:33.928Z,1.00
2022-11-04T13:41:21.176Z,1.53
2022-11-04T13:43:53.141Z,1.23
2022-11-04T13:46:29.816Z,1.27
2022-11-04T13:49:02.967Z,1.63
2022-11-04T13:51:44.749Z,1.47
2022-11-04T13:54:27.063Z,2.10
2022-11-04T13:57:05.455Z,1.43
2022-11-04T13:59:33.511Z,1.20
2022-11-04T14:02:34.927Z,1.40
2022-11-04T14:05:56.797Z,0.83
2022-11-04T14:08:24.794Z,1.30
2022-11-04T14:11:05.150Z,1.40
2022-11-04T14:13:46.500Z,1.30
2022-11-04T14:16:47.506Z,1.33
2022-11-04T14:19:57.360Z,1.23
2022-11-04T14:22:49.565Z,1.40
2022-11-04T14:25:24.909Z,1.07
2022-11-04T14:27:57.184Z,1.47
2022-11-04T14:30:36.680Z,1.60
2022-11-04T14:33:07.693Z,1.83
2022-11-04T14:35:36.370Z,1.53
2022-11-04T14:38:14.973Z,1.47
2022-11-04T14:40:49.388Z,1.90
2022-11-04T14:43:31.043Z,1.73
2022-11-04T14:46:00.202Z,1.53
2022-11-04T14:48:29.755Z,1.30
2022-11-04T14:50:58.327Z,1.70
2022-11-04T14:53:29.624Z,1.17
2022-11-04T14:56:05.052Z,1.30
2022-11-04T14:58:32.743Z,1.70
2022-11-04T15:01:01.427Z,1.40
2022-11-04T15:04:10.212Z,1.33
2022-11-04T15:06:40.245Z,1.20
2022-11-04T15:09:22.774Z,1.27
2022-11-04T15:12:08.517Z,1.20
2022-11-04T15:14:37.855Z,1.20
2022-11-04T15:17:05.562Z,1.80
2022-11-04T15:19:36.034Z,1.80
2022-11-04T15:22:05.269Z,1.33
2022-11-04T15:24:32.972Z,1.33
2022-11-04T15:27:02.447Z,2.77
2022-11-04T15:29:30.078Z,1.50
2022-11-04T15:32:04.530Z,1.30
2022-11-04T15:34:34.828Z,1.40
2022-11-04T15:37:05.346Z,1.87
2022-11-04T15:39:35.624Z,1.20
2022-11-04T15:42:23.311Z,1.67
2022-11-04T15:44:54.836Z,1.80
2022-11-04T15:47:24.634Z,1.70
2022-11-04T15:49:54.769Z,1.97
2022-11-04T15:52:24.147Z,2.07
2022-11-04T15:54:53.270Z,1.17
2022-11-04T15:57:23.951Z,1.70
2022-11-04T15:59:55.797Z,3.00
2022-11-04T16:02:27.964Z,2.30
2022-11-04T16:05:22.596Z,2.00
2022-11-04T16:07:51.935Z,2.80
2022-11-04T16:10:25.418Z,2.33
2022-11-04T16:12:56.387Z,2.27
2022-11-04T16:15:35.558Z,2.47
2022-11-04T16:18:03.698Z,2.10
2022-11-04T16:20:34.650Z,2.67
2022-11-04T16:23:03.579Z,3.70
2022-11-04T16:25:34.118Z,4.10
2022-11-04T16:28:02.374Z,5.30
2022-11-04T16:30:32.369Z,3.10
2022-11-04T16:33:10.282Z,3.77
2022-11-04T16:35:42.758Z,2.93
2022-11-04T16:38:10.412Z,3.30
2022-11-04T16:40:38.094Z,2.07
2022-11-04T16:43:05.719Z,2.90
2022-11-04T16:45:34.727Z,1.77
2022-11-04T16:48:02.540Z,2.60
2022-11-04T16:50:31.927Z,2.20
2022-11-04T16:53:03.182Z,2.30
2022-11-04T16:55:30.831Z,2.57
2022-11-04T16:58:01.051Z,3.23
2022-11-04T17:00:32.776Z,4.30
2022-11-04T17:03:00.335Z,4.00
2022-11-04T17:05:27.972Z,3.30
2022-11-04T17:08:00.145Z,3.60
2022-11-04T17:10:35.908Z,3.00
2022-11-04T17:13:03.816Z,2.83
2022-11-04T17:15:31.673Z,3.40
2022-11-04T17:17:59.300Z,3.00
2022-11-04T17:20:26.923Z,2.60
2022-11-04T17:22:54.434Z,2.40
2022-11-04T17:25:23.358Z,3.40
2022-11-04T17:27:59.656Z,2.90
2022-11-04T17:30:29.789Z,2.87
2022-11-04T17:33:35.994Z,3.70
2022-11-04T17:36:07.616Z,5.43
2022-11-04T17:38:35.732Z,16.60
2022-11-04T17:41:21.192Z,8.87
2022-11-04T17:44:00.964Z,7.73
2022-11-04T17:46:38.079Z,7.40
2022-11-04T17:49:09.532Z,6.40
2022-11-04T17:51:38.487Z,5.67
2022-11-04T17:54:06.556Z,4.73
2022-11-04T17:56:42.597Z,6.80
2022-11-04T17:59:25.603Z,6.80
2022-11-04T18:01:58.357Z,5.40
2022-11-04T18:04:34.808Z,7.67
2022-11-04T18:07:21.584Z,7.60
2022-11-04T18:09:52.432Z,5.73
2022-11-04T18:12:41.701Z,8.33
2022-11-04T18:15:24.668Z,4.27
2022-11-04T18:18:04.550Z,5.17
2022-11-04T18:24:24.887Z,5.70
2022-11-04T18:27:13.386Z,5.90
2022-11-04T18:29:41.632Z,9.07
2022-11-04T18:32:09.674Z,8.63
2022-11-04T18:34:39.989Z,7.90
2022-11-04T18:37:08.230Z,7.93
2022-11-04T18:39:39.907Z,5.83
2022-11-04T18:42:12.129Z,4.33
2022-11-04T18:44:44.161Z,4.47
2022-11-04T18:48:06.398Z,4.20
2022-11-04T18:54:37.842Z,5.20
2022-11-04T18:58:01.532Z,7.60
2022-11-04T19:00:29.220Z,7.70
2022-11-04T19:02:56.900Z,8.57
2022-11-04T19:05:24.668Z,8.10
2022-11-04T19:07:52.684Z,7.33
2022-11-04T19:10:21.771Z,7.77
2022-11-04T19:13:06.906Z,6.77
2022-11-04T19:15:34.918Z,7.67
2022-11-04T19:18:02.538Z,7.70
2022-11-04T19:20:30.195Z,7.70
2022-11-04T19:22:57.810Z,7.07
2022-11-04T19:25:26.979Z,7.10
2022-11-04T19:28:18.712Z,6.50
2022-11-04T19:30:43.088Z,4.93
2022-11-04T19:33:10.758Z,5.67
2022-11-04T19:35:38.407Z,5.50
2022-11-04T19:38:07.006Z,5.47
2022-11-04T19:40:36.284Z,4.10
2022-11-04T19:43:12.187Z,4.70
2022-11-04T19:45:41.164Z,4.47
2022-11-04T19:48:09.706Z,4.07
2022-11-04T19:50:41.583Z,4.70
2022-11-04T19:53:09.599Z,4.63
2022-11-04T19:55:38.979Z,4.47
2022-11-04T19:58:06.885Z,4.50
2022-11-04T20:00:34.687Z,5.00
2022-11-04T20:03:02.404Z,5.00
2022-11-04T20:05:30.251Z,4.27
2022-11-04T20:08:06.268Z,4.63
2022-11-04T20:10:36.847Z,4.80
2022-11-04T20:13:23.780Z,4.27
2022-11-04T20:15:51.556Z,4.37
2022-11-04T20:18:19.178Z,3.90
2022-11-04T20:20:46.820Z,4.00
2022-11-04T20:23:14.455Z,4.10
2022-11-04T20:25:45.044Z,3.57
2022-11-04T20:28:14.010Z,4.83
2022-11-04T20:30:42.035Z,4.07
2022-11-04T20:33:09.643Z,4.87
2022-11-04T20:35:37.602Z,4.17
2022-11-04T20:38:05.365Z,4.27
2022-11-04T20:40:33.255Z,3.90
2022-11-04T20:43:04.593Z,4.47
2022-11-04T20:45:33.606Z,3.47
2022-11-04T20:48:01.339Z,4.13
2022-11-04T20:50:29.089Z,4.40
2022-11-04T20:52:56.746Z,3.53
2022-11-04T20:55:25.267Z,4.00
2022-11-04T20:57:52.955Z,5.80
2022-11-04T21:00:20.768Z,5.60
2022-11-04T21:02:50.428Z,5.90
2022-11-04T21:05:19.755Z,5.83
2022-11-04T21:07:47.400Z,5.60
2022-11-04T21:10:15.070Z,9.27
2022-11-04T21:12:42.695Z,7.90
2022-11-04T21:15:31.053Z,7.60
2022-11-04T21:18:00.044Z,5.60
2022-11-04T21:20:27.652Z,5.03
2022-11-04T21:22:55.328Z,6.90
2022-11-04T21:25:23.274Z,5.40
2022-11-04T21:27:50.951Z,6.00
2022-11-04T21:30:18.639Z,5.43
2022-11-04T21:32:46.605Z,6.47
2022-11-04T21:35:15.660Z,5.80
2022-11-04T21:37:43.662Z,6.23
2022-11-04T21:40:12.247Z,4.90
2022-11-04T21:42:39.938Z,5.93
2022-11-04T21:45:08.234Z,5.67
2022-11-04T21:47:35.899Z,4.40
2022-11-04T21:50:04.079Z,5.13
2022-11-04T21:52:33.205Z,5.27
2022-11-04T21:55:00.941Z,4.63
2022-11-04T21:57:28.658Z,4.17
2022-11-04T21:59:56.293Z,4.90
2022-11-04T22:02:24.072Z,5.20
2022-11-04T22:04:51.791Z,5.00
2022-11-04T22:07:40.187Z,4.60
2022-11-04T22:10:09.852Z,5.20
2022-11-04T22:12:37.544Z,4.60
2022-11-04T22:15:05.660Z,5.23
2022-11-04T22:17:33.363Z,5.90
2022-11-04T22:20:01.059Z,5.40
2022-11-04T22:22:28.762Z,4.67
2022-11-04T22:25:03.201Z,4.87
2022-11-04T22:27:33.056Z,4.63
2022-11-04T22:30:01.012Z,4.53
2022-11-04T22:32:28.952Z,5.07
2022-11-04T22:34:56.618Z,4.80
2022-11-04T22:37:24.465Z,4.47
2022-11-04T22:39:52.156Z,4.47
2022-11-04T22:42:19.857Z,4.20
2022-11-04T22:44:48.967Z,6.50
2022-11-04T22:47:16.648Z,5.17
2022-11-04T22:49:44.306Z,4.27
2022-11-04T22:52:12.410Z,4.87
2022-11-04T22:54:40.078Z,5.43
2022-11-04T22:57:07.853Z,5.70
2022-11-04T22:59:35.648Z,4.80
2022-11-04T23:02:04.833Z,4.60
2022-11-04T23:04:32.566Z,4.90
2022-11-04T23:07:00.554Z,4.63
2022-11-04T23:09:28.270Z,4.67
2022-11-04T23:12:13.745Z,4.30
2022-11-04T23:14:59.169Z,5.10
2022-11-04T23:17:45.744Z,4.43
2022-11-04T23:20:14.971Z,4.50
2022-11-04T23:23:00.260Z,5.50
2022-11-04T23:25:27.995Z,4.33
2022-11-04T23:28:14.446Z,4.53
2022-11-04T23:30:44.719Z,5.03
2022-11-04T23:33:15.495Z,4.80
2022-11-04T23:36:03.007Z,4.60
2022-11-04T23:38:30.977Z,4.87
2022-11-04T23:41:18.317Z,5.10
2022-11-04T23:43:45.935Z,5.83
2022-11-04T23:46:31.565Z,4.97
2022-11-04T23:49:18.274Z,5.00
2022-11-04T23:52:03.723Z,4.37
2022-11-04T23:54:54.398Z,4.40
2022-11-04T23:57:39.967Z,4.37
